sensor_id;sensor_type;location;lat;lon;timestamp;pressure;altitude;pressure_sealevel;temperature;humidity
20027;BME280;10174;42.688;23.344;2023-03-14T00:01:18;95541.06;;;3.07;55.53
20027;BME280;10174;42.688;23.344;2023-03-14T00:03:45;95542.06;;;3.13;54.02
20027;BME280;10174;42.688;23.344;2023-03-14T00:06:11;95535.69;;;3.20;53.48
20027;BME280;10174;42.688;23.344;2023-03-14T00:08:37;95508.75;;;3.17;53.06
20027;BME280;10174;42.688;23.344;2023-03-14T00:11:15;95530.97;;;3.29;53.99
20027;BME280;10174;42.688;23.344;2023-03-14T00:13:41;95528.13;;;3.24;53.80
20027;BME280;10174;42.688;23.344;2023-03-14T00:16:12;95509.59;;;3.11;53.20
20027;BME280;10174;42.688;23.344;2023-03-14T00:18:38;95530.56;;;3.26;53.72
20027;BME280;10174;42.688;23.344;2023-03-14T00:21:05;95519.53;;;3.22;54.63
20027;BME280;10174;42.688;23.344;2023-03-14T00:23:32;95518.34;;;3.18;53.80
20027;BME280;10174;42.688;23.344;2023-03-14T00:26:04;95389.66;;;2.37;54.40
20027;BME280;10174;42.688;23.344;2023-03-14T00:28:29;95503.28;;;3.12;54.42
20027;BME280;10174;42.688;23.344;2023-03-14T00:30:55;95488.94;;;3.13;54.83
20027;BME280;10174;42.688;23.344;2023-03-14T00:33:21;95510.78;;;3.21;54.92
20027;BME280;10174;42.688;23.344;2023-03-14T00:35:54;95490.00;;;3.12;54.92
20027;BME280;10174;42.688;23.344;2023-03-14T00:38:20;95487.78;;;3.09;54.60
20027;BME280;10174;42.688;23.344;2023-03-14T00:40:46;95487.34;;;3.05;55.36
20027;BME280;10174;42.688;23.344;2023-03-14T00:43:11;95483.31;;;3.02;55.50
20027;BME280;10174;42.688;23.344;2023-03-14T00:45:37;95467.59;;;2.94;55.36
20027;BME280;10174;42.688;23.344;2023-03-14T00:48:03;95486.97;;;3.01;54.97
20027;BME280;10174;42.688;23.344;2023-03-14T00:50:29;95478.81;;;3.03;54.66
20027;BME280;10174;42.688;23.344;2023-03-14T00:52:54;95450.53;;;2.77;55.50
20027;BME280;10174;42.688;23.344;2023-03-14T00:55:20;95485.00;;;2.90;56.61
20027;BME280;10174;42.688;23.344;2023-03-14T00:57:45;95482.38;;;2.77;57.35
20027;BME280;10174;42.688;23.344;2023-03-14T01:00:11;95455.09;;;2.56;58.29
20027;BME280;10174;42.688;23.344;2023-03-14T01:02:38;95477.56;;;2.54;57.88
20027;BME280;10174;42.688;23.344;2023-03-14T01:05:03;95454.53;;;2.27;57.10
20027;BME280;10174;42.688;23.344;2023-03-14T01:07:29;95479.63;;;2.31;58.13
20027;BME280;10174;42.688;23.344;2023-03-14T01:09:54;95471.50;;;2.26;58.73
20027;BME280;10174;42.688;23.344;2023-03-14T01:12:20;95462.75;;;1.99;59.79
20027;BME280;10174;42.688;23.344;2023-03-14T01:14:45;95458.06;;;1.88;60.42
20027;BME280;10174;42.688;23.344;2023-03-14T01:17:11;95465.22;;;2.01;59.07
20027;BME280;10174;42.688;23.344;2023-03-14T01:19:36;95357.66;;;1.19;60.32
20027;BME280;10174;42.688;23.344;2023-03-14T01:22:02;95440.34;;;1.62;61.31
20027;BME280;10174;42.688;23.344;2023-03-14T01:24:27;95444.44;;;1.64;61.50
20027;BME280;10174;42.688;23.344;2023-03-14T01:26:53;95446.84;;;1.52;60.98
20027;BME280;10174;42.688;23.344;2023-03-14T01:29:18;95428.50;;;1.37;60.53
20027;BME280;10174;42.688;23.344;2023-03-14T01:31:43;95444.81;;;1.41;61.64
20027;BME280;10174;42.688;23.344;2023-03-14T01:34:09;95453.38;;;1.56;61.28
20027;BME280;10174;42.688;23.344;2023-03-14T01:36:34;95433.81;;;1.31;61.98
20027;BME280;10174;42.688;23.344;2023-03-14T01:39:00;95448.47;;;1.33;62.09
20027;BME280;10174;42.688;23.344;2023-03-14T01:41:26;95440.75;;;1.32;62.92
20027;BME280;10174;42.688;23.344;2023-03-14T01:43:52;95428.91;;;1.28;62.32
20027;BME280;10174;42.688;23.344;2023-03-14T01:46:34;95443.59;;;1.30;62.87
20027;BME280;10174;42.688;23.344;2023-03-14T01:52:00;95439.06;;;1.17;61.83
20027;BME280;10174;42.688;23.344;2023-03-14T01:56:57;95439.06;;;1.04;63.07
20027;BME280;10174;42.688;23.344;2023-03-14T01:59:24;95428.06;;;0.94;64.56
20027;BME280;10174;42.688;23.344;2023-03-14T02:01:51;95412.53;;;0.84;63.66
20027;BME280;10174;42.688;23.344;2023-03-14T02:04:17;95436.16;;;0.85;63.42
20027;BME280;10174;42.688;23.344;2023-03-14T02:06:52;95434.53;;;0.84;63.16
20027;BME280;10174;42.688;23.344;2023-03-14T02:09:20;95439.00;;;0.84;63.97
20027;BME280;10174;42.688;23.344;2023-03-14T02:11:46;95425.56;;;0.85;64.52
20027;BME280;10174;42.688;23.344;2023-03-14T02:14:19;95422.91;;;0.85;64.09
20027;BME280;10174;42.688;23.344;2023-03-14T02:16:47;95427.59;;;0.83;63.76
20027;BME280;10174;42.688;23.344;2023-03-14T02:19:14;95418.22;;;0.74;64.79
20027;BME280;10174;42.688;23.344;2023-03-14T02:24:32;95417.03;;;0.83;64.76
20027;BME280;10174;42.688;23.344;2023-03-14T02:27:11;95417.81;;;0.77;64.88
20027;BME280;10174;42.688;23.344;2023-03-14T02:29:41;95419.06;;;0.81;64.92
20027;BME280;10174;42.688;23.344;2023-03-14T02:32:11;95406.41;;;0.70;64.74
20027;BME280;10174;42.688;23.344;2023-03-14T02:34:36;95411.28;;;0.73;64.59
20027;BME280;10174;42.688;23.344;2023-03-14T02:37:02;95419.41;;;0.71;64.97
20027;BME280;10174;42.688;23.344;2023-03-14T02:39:35;95412.13;;;0.74;65.00
20027;BME280;10174;42.688;23.344;2023-03-14T02:42:02;95293.47;;;-0.11;64.69
20027;BME280;10174;42.688;23.344;2023-03-14T02:44:27;95415.72;;;0.59;65.64
20027;BME280;10174;42.688;23.344;2023-03-14T02:46:53;95440.16;;;0.68;65.66
20027;BME280;10174;42.688;23.344;2023-03-14T02:49:18;95406.31;;;0.43;66.47
20027;BME280;10174;42.688;23.344;2023-03-14T02:51:44;95429.78;;;0.60;66.66
20027;BME280;10174;42.688;23.344;2023-03-14T02:54:10;95419.75;;;0.48;67.63
20027;BME280;10174;42.688;23.344;2023-03-14T02:56:36;95420.13;;;0.45;67.26
20027;BME280;10174;42.688;23.344;2023-03-14T02:59:03;95331.22;;;-0.17;67.91
20027;BME280;10174;42.688;23.344;2023-03-14T03:01:29;95423.97;;;0.36;67.82
20027;BME280;10174;42.688;23.344;2023-03-14T03:03:54;95436.41;;;0.42;68.23
20027;BME280;10174;42.688;23.344;2023-03-14T03:06:20;95422.13;;;0.37;68.19
20027;BME280;10174;42.688;23.344;2023-03-14T03:08:45;95431.16;;;0.56;67.58
20027;BME280;10174;42.688;23.344;2023-03-14T03:11:11;95435.88;;;0.67;67.87
20027;BME280;10174;42.688;23.344;2023-03-14T03:13:36;95418.34;;;0.52;68.14
20027;BME280;10174;42.688;23.344;2023-03-14T03:16:02;95423.44;;;0.54;68.21
20027;BME280;10174;42.688;23.344;2023-03-14T03:18:27;95419.34;;;0.51;68.31
20027;BME280;10174;42.688;23.344;2023-03-14T03:20:53;95423.38;;;0.47;68.83
20027;BME280;10174;42.688;23.344;2023-03-14T03:23:18;95411.34;;;0.38;69.72
20027;BME280;10174;42.688;23.344;2023-03-14T03:25:50;95433.97;;;0.47;69.81
20027;BME280;10174;42.688;23.344;2023-03-14T03:28:17;95430.09;;;0.43;70.10
20027;BME280;10174;42.688;23.344;2023-03-14T03:30:42;95344.22;;;-0.16;70.52
20027;BME280;10174;42.688;23.344;2023-03-14T03:33:08;95424.81;;;0.43;70.00
20027;BME280;10174;42.688;23.344;2023-03-14T03:35:34;95414.25;;;0.43;69.79
20027;BME280;10174;42.688;23.344;2023-03-14T03:38:00;95427.06;;;0.46;69.26
20027;BME280;10174;42.688;23.344;2023-03-14T03:40:26;95421.97;;;0.45;69.59
20027;BME280;10174;42.688;23.344;2023-03-14T03:42:51;95422.38;;;0.42;69.14
20027;BME280;10174;42.688;23.344;2023-03-14T03:45:17;95414.19;;;0.37;68.88
20027;BME280;10174;42.688;23.344;2023-03-14T03:47:42;95421.34;;;0.43;69.24
20027;BME280;10174;42.688;23.344;2023-03-14T03:50:08;95434.75;;;0.41;69.19
20027;BME280;10174;42.688;23.344;2023-03-14T03:52:33;95422.09;;;0.23;69.73
20027;BME280;10174;42.688;23.344;2023-03-14T03:54:59;95421.25;;;0.23;69.12
20027;BME280;10174;42.688;23.344;2023-03-14T03:57:24;95430.63;;;0.25;68.98
20027;BME280;10174;42.688;23.344;2023-03-14T03:59:50;95415.94;;;0.16;68.89
20027;BME280;10174;42.688;23.344;2023-03-14T04:02:15;95417.53;;;0.10;69.75
20027;BME280;10174;42.688;23.344;2023-03-14T04:04:40;95427.75;;;0.20;69.71
20027;BME280;10174;42.688;23.344;2023-03-14T04:07:06;95421.31;;;0.29;68.71
20027;BME280;10174;42.688;23.344;2023-03-14T04:09:31;95415.97;;;0.23;68.93
20027;BME280;10174;42.688;23.344;2023-03-14T04:11:57;95432.28;;;0.33;68.74
20027;BME280;10174;42.688;23.344;2023-03-14T04:14:23;95436.78;;;0.39;68.73
20027;BME280;10174;42.688;23.344;2023-03-14T04:16:48;95338.53;;;-0.20;68.34
20027;BME280;10174;42.688;23.344;2023-03-14T04:19:14;95409.09;;;0.35;68.15
20027;BME280;10174;42.688;23.344;2023-03-14T04:21:39;95423.84;;;0.51;67.79
20027;BME280;10174;42.688;23.344;2023-03-14T04:24:09;95415.25;;;0.42;68.01
20027;BME280;10174;42.688;23.344;2023-03-14T04:26:35;95394.50;;;0.39;67.73
20027;BME280;10174;42.688;23.344;2023-03-14T04:29:00;95392.44;;;0.28;67.92
20027;BME280;10174;42.688;23.344;2023-03-14T04:31:25;95392.34;;;0.14;68.71
20027;BME280;10174;42.688;23.344;2023-03-14T04:33:51;95405.56;;;0.14;69.45
20027;BME280;10174;42.688;23.344;2023-03-14T04:36:16;95396.38;;;0.10;69.33
20027;BME280;10174;42.688;23.344;2023-03-14T04:38:41;95409.84;;;0.15;70.09
20027;BME280;10174;42.688;23.344;2023-03-14T04:41:07;95281.44;;;-0.62;70.03
20027;BME280;10174;42.688;23.344;2023-03-14T04:43:33;95379.66;;;-0.04;70.34
20027;BME280;10174;42.688;23.344;2023-03-14T04:45:58;95296.50;;;-0.49;70.15
20027;BME280;10174;42.688;23.344;2023-03-14T04:48:25;95388.13;;;0.20;70.36
20027;BME280;10174;42.688;23.344;2023-03-14T04:50:50;95383.81;;;0.12;70.36
20027;BME280;10174;42.688;23.344;2023-03-14T04:53:17;95351.66;;;0.02;70.65
20027;BME280;10174;42.688;23.344;2023-03-14T04:55:50;95383.84;;;0.26;70.37
20027;BME280;10174;42.688;23.344;2023-03-14T04:58:16;95385.09;;;0.23;70.09
20027;BME280;10174;42.688;23.344;2023-03-14T05:00:41;95382.41;;;0.16;70.96
20027;BME280;10174;42.688;23.344;2023-03-14T05:03:07;95387.47;;;0.18;71.07
20027;BME280;10174;42.688;23.344;2023-03-14T05:05:32;95396.84;;;0.21;71.41
20027;BME280;10174;42.688;23.344;2023-03-14T05:07:58;95394.03;;;0.22;70.89
20027;BME280;10174;42.688;23.344;2023-03-14T05:10:23;95386.28;;;0.21;71.03
20027;BME280;10174;42.688;23.344;2023-03-14T05:12:48;95328.03;;;-0.06;70.99
20027;BME280;10174;42.688;23.344;2023-03-14T05:15:14;95378.19;;;0.29;71.64
20027;BME280;10174;42.688;23.344;2023-03-14T05:17:39;95383.53;;;0.42;71.04
20027;BME280;10174;42.688;23.344;2023-03-14T05:20:05;95378.28;;;0.49;70.71
20027;BME280;10174;42.688;23.344;2023-03-14T05:22:40;95386.22;;;0.56;70.89
20027;BME280;10174;42.688;23.344;2023-03-14T05:25:07;95387.28;;;0.68;70.91
20027;BME280;10174;42.688;23.344;2023-03-14T05:27:33;95367.53;;;0.64;70.28
20027;BME280;10174;42.688;23.344;2023-03-14T05:29:59;95386.53;;;0.87;70.08
20027;BME280;10174;42.688;23.344;2023-03-14T05:32:24;95372.69;;;0.99;69.67
20027;BME280;10174;42.688;23.344;2023-03-14T05:34:49;95294.09;;;0.59;69.33
20027;BME280;10174;42.688;23.344;2023-03-14T05:37:15;95377.63;;;1.29;68.29
20027;BME280;10174;42.688;23.344;2023-03-14T05:39:40;95367.22;;;1.34;66.51
20027;BME280;10174;42.688;23.344;2023-03-14T05:42:06;95371.69;;;1.53;66.56
20027;BME280;10174;42.688;23.344;2023-03-14T05:44:31;95365.78;;;1.65;66.50
20027;BME280;10174;42.688;23.344;2023-03-14T05:46:56;95357.00;;;1.71;65.85
20027;BME280;10174;42.688;23.344;2023-03-14T05:49:22;95375.94;;;1.94;66.14
20027;BME280;10174;42.688;23.344;2023-03-14T05:51:47;95356.81;;;1.79;65.16
20027;BME280;10174;42.688;23.344;2023-03-14T05:54:12;95371.09;;;1.71;64.96
20027;BME280;10174;42.688;23.344;2023-03-14T05:56:38;95368.41;;;1.91;64.73
20027;BME280;10174;42.688;23.344;2023-03-14T05:59:03;95382.88;;;1.95;64.92
20027;BME280;10174;42.688;23.344;2023-03-14T06:01:29;95375.13;;;1.81;64.88
20027;BME280;10174;42.688;23.344;2023-03-14T06:03:55;95355.59;;;1.62;65.32
20027;BME280;10174;42.688;23.344;2023-03-14T06:06:20;95355.56;;;1.82;65.45
20027;BME280;10174;42.688;23.344;2023-03-14T06:08:45;95359.63;;;1.84;65.34
20027;BME280;10174;42.688;23.344;2023-03-14T06:11:11;95372.25;;;1.89;65.25
20027;BME280;10174;42.688;23.344;2023-03-14T06:13:36;95336.63;;;1.65;65.79
20027;BME280;10174;42.688;23.344;2023-03-14T06:16:02;95365.53;;;1.86;65.69
20027;BME280;10174;42.688;23.344;2023-03-14T06:18:27;95370.59;;;2.01;65.31
20027;BME280;10174;42.688;23.344;2023-03-14T06:20:56;95374.28;;;2.00;65.30
20027;BME280;10174;42.688;23.344;2023-03-14T06:23:22;95376.88;;;2.13;65.33
20027;BME280;10174;42.688;23.344;2023-03-14T06:25:47;95366.53;;;2.05;65.02
20027;BME280;10174;42.688;23.344;2023-03-14T06:28:13;95354.94;;;1.86;64.59
20027;BME280;10174;42.688;23.344;2023-03-14T06:30:39;95368.19;;;1.93;65.06
20027;BME280;10174;42.688;23.344;2023-03-14T06:33:04;95391.41;;;2.11;65.25
20027;BME280;10174;42.688;23.344;2023-03-14T06:35:29;95368.16;;;2.06;64.46
20027;BME280;10174;42.688;23.344;2023-03-14T06:37:55;95358.13;;;2.15;64.48
20027;BME280;10174;42.688;23.344;2023-03-14T06:40:20;95357.97;;;2.03;63.70
20027;BME280;10174;42.688;23.344;2023-03-14T06:42:46;95373.59;;;2.18;63.90
20027;BME280;10174;42.688;23.344;2023-03-14T06:45:13;95373.16;;;2.35;63.52
20027;BME280;10174;42.688;23.344;2023-03-14T06:47:39;95370.03;;;2.51;63.36
20027;BME280;10174;42.688;23.344;2023-03-14T06:50:08;95349.25;;;2.48;63.18
20027;BME280;10174;42.688;23.344;2023-03-14T06:52:34;95357.91;;;2.68;62.91
20027;BME280;10174;42.688;23.344;2023-03-14T06:54:59;95344.56;;;2.82;62.24
20027;BME280;10174;42.688;23.344;2023-03-14T06:57:25;95357.97;;;2.94;62.15
20027;BME280;10174;42.688;23.344;2023-03-14T06:59:50;95313.16;;;2.79;61.57
20027;BME280;10174;42.688;23.344;2023-03-14T07:02:16;95328.13;;;2.98;61.63
20027;BME280;10174;42.688;23.344;2023-03-14T07:04:41;95290.13;;;3.05;60.45
20027;BME280;10174;42.688;23.344;2023-03-14T07:07:07;95323.38;;;3.32;60.88
20027;BME280;10174;42.688;23.344;2023-03-14T07:09:33;95331.78;;;3.54;59.79
20027;BME280;10174;42.688;23.344;2023-03-14T07:11:59;95339.69;;;3.61;59.43
20027;BME280;10174;42.688;23.344;2023-03-14T07:14:24;95266.38;;;3.10;59.01
20027;BME280;10174;42.688;23.344;2023-03-14T07:16:50;95341.91;;;3.64;59.46
20027;BME280;10174;42.688;23.344;2023-03-14T07:19:15;95324.66;;;3.73;57.71
20027;BME280;10174;42.688;23.344;2023-03-14T07:21:40;95331.41;;;3.95;56.63
20027;BME280;10174;42.688;23.344;2023-03-14T07:24:06;95323.66;;;3.93;55.20
20027;BME280;10174;42.688;23.344;2023-03-14T07:26:31;95251.47;;;3.52;54.69
20027;BME280;10174;42.688;23.344;2023-03-14T07:28:57;95326.00;;;4.01;54.05
20027;BME280;10174;42.688;23.344;2023-03-14T07:31:23;95296.63;;;3.78;55.06
20027;BME280;10174;42.688;23.344;2023-03-14T07:33:48;95314.78;;;3.99;55.17
20027;BME280;10174;42.688;23.344;2023-03-14T07:36:14;95274.69;;;3.82;55.13
20027;BME280;10174;42.688;23.344;2023-03-14T07:38:40;95271.19;;;3.82;55.12
20027;BME280;10174;42.688;23.344;2023-03-14T07:41:06;95320.63;;;4.26;54.70
20027;BME280;10174;42.688;23.344;2023-03-14T07:43:32;95285.63;;;4.11;54.79
20027;BME280;10174;42.688;23.344;2023-03-14T07:45:58;95281.84;;;4.19;54.12
20027;BME280;10174;42.688;23.344;2023-03-14T07:48:24;95311.38;;;4.48;53.63
20027;BME280;10174;42.688;23.344;2023-03-14T07:50:53;95282.25;;;4.34;53.32
20027;BME280;10174;42.688;23.344;2023-03-14T07:53:20;95267.94;;;4.35;53.78
20027;BME280;10174;42.688;23.344;2023-03-14T07:55:46;95301.81;;;4.58;53.53
20027;BME280;10174;42.688;23.344;2023-03-14T07:58:12;95281.38;;;4.40;52.54
20027;BME280;10174;42.688;23.344;2023-03-14T08:00:38;95296.84;;;4.62;52.81
20027;BME280;10174;42.688;23.344;2023-03-14T08:03:03;95262.41;;;4.49;52.09
20027;BME280;10174;42.688;23.344;2023-03-14T08:05:28;95287.59;;;4.76;53.19
20027;BME280;10174;42.688;23.344;2023-03-14T08:07:54;95305.28;;;5.01;51.93
20027;BME280;10174;42.688;23.344;2023-03-14T08:10:20;95235.50;;;4.69;51.10
20027;BME280;10174;42.688;23.344;2023-03-14T08:12:53;95287.34;;;5.08;51.03
20027;BME280;10174;42.688;23.344;2023-03-14T08:15:20;95289.31;;;5.13;51.03
20027;BME280;10174;42.688;23.344;2023-03-14T08:17:46;95267.34;;;5.06;51.35
20027;BME280;10174;42.688;23.344;2023-03-14T08:20:37;95240.38;;;5.26;49.63
20027;BME280;10174;42.688;23.344;2023-03-14T08:23:02;95266.78;;;5.39;49.13
20027;BME280;10174;42.688;23.344;2023-03-14T08:25:28;95292.03;;;5.48;48.66
20027;BME280;10174;42.688;23.344;2023-03-14T08:27:53;95282.19;;;5.49;49.32
20027;BME280;10174;42.688;23.344;2023-03-14T08:30:21;95289.13;;;5.74;48.61
20027;BME280;10174;42.688;23.344;2023-03-14T08:32:46;95288.19;;;5.80;48.65
20027;BME280;10174;42.688;23.344;2023-03-14T08:35:12;95295.16;;;5.93;48.11
20027;BME280;10174;42.688;23.344;2023-03-14T08:37:38;95281.09;;;6.09;47.69
20027;BME280;10174;42.688;23.344;2023-03-14T08:40:04;95247.63;;;6.01;46.89
20027;BME280;10174;42.688;23.344;2023-03-14T08:42:35;95264.84;;;6.22;46.83
20027;BME280;10174;42.688;23.344;2023-03-14T08:45:01;95226.91;;;6.32;46.33
20027;BME280;10174;42.688;23.344;2023-03-14T08:47:26;95186.44;;;6.52;44.86
20027;BME280;10174;42.688;23.344;2023-03-14T08:49:52;95253.69;;;7.51;43.97
20027;BME280;10174;42.688;23.344;2023-03-14T08:52:18;95235.00;;;8.34;41.35
20027;BME280;10174;42.688;23.344;2023-03-14T08:54:43;95250.47;;;9.36;40.62
20027;BME280;10174;42.688;23.344;2023-03-14T08:57:09;95241.81;;;10.20;37.86
20027;BME280;10174;42.688;23.344;2023-03-14T08:59:35;95153.91;;;10.78;35.40
20027;BME280;10174;42.688;23.344;2023-03-14T09:02:01;95225.56;;;12.11;34.29
20027;BME280;10174;42.688;23.344;2023-03-14T09:04:29;95207.38;;;12.48;33.18
20027;BME280;10174;42.688;23.344;2023-03-14T09:06:54;95222.69;;;13.03;32.60
20027;BME280;10174;42.688;23.344;2023-03-14T09:09:20;95209.66;;;13.10;32.18
20027;BME280;10174;42.688;23.344;2023-03-14T09:11:45;95194.06;;;13.07;32.52
20027;BME280;10174;42.688;23.344;2023-03-14T09:14:10;95211.34;;;13.06;31.44
20027;BME280;10174;42.688;23.344;2023-03-14T09:16:36;95194.97;;;12.47;31.93
20027;BME280;10174;42.688;23.344;2023-03-14T09:19:01;95189.56;;;13.90;31.13
20027;BME280;10174;42.688;23.344;2023-03-14T09:21:27;95180.66;;;14.95;29.59
20027;BME280;10174;42.688;23.344;2023-03-14T09:23:53;95173.56;;;14.99;29.06
20027;BME280;10174;42.688;23.344;2023-03-14T09:26:18;95161.06;;;15.36;28.32
20027;BME280;10174;42.688;23.344;2023-03-14T09:28:44;95171.97;;;15.64;28.62
20027;BME280;10174;42.688;23.344;2023-03-14T09:31:10;95174.00;;;16.28;28.18
20027;BME280;10174;42.688;23.344;2023-03-14T09:33:37;95173.63;;;16.20;27.63
20027;BME280;10174;42.688;23.344;2023-03-14T09:36:03;95170.50;;;16.78;26.63
20027;BME280;10174;42.688;23.344;2023-03-14T09:38:28;95161.69;;;17.31;26.37
20027;BME280;10174;42.688;23.344;2023-03-14T09:40:55;95160.91;;;16.58;26.47
20027;BME280;10174;42.688;23.344;2023-03-14T09:43:24;95146.56;;;18.02;25.71
20027;BME280;10174;42.688;23.344;2023-03-14T09:45:50;95142.13;;;19.16;24.03
20027;BME280;10174;42.688;23.344;2023-03-14T09:48:19;95057.63;;;19.89;22.51
20027;BME280;10174;42.688;23.344;2023-03-14T09:50:49;95063.16;;;19.16;22.73
20027;BME280;10174;42.688;23.344;2023-03-14T09:53:20;95099.66;;;19.15;22.94
20027;BME280;10174;42.688;23.344;2023-03-14T09:55:50;95126.16;;;19.70;22.98
20027;BME280;10174;42.688;23.344;2023-03-14T09:58:21;95126.88;;;19.97;22.86
20027;BME280;10174;42.688;23.344;2023-03-14T10:00:49;95103.13;;;20.57;21.68
20027;BME280;10174;42.688;23.344;2023-03-14T10:03:34;95112.63;;;20.51;22.52
20027;BME280;10174;42.688;23.344;2023-03-14T10:06:01;95104.66;;;19.13;23.74
20027;BME280;10174;42.688;23.344;2023-03-14T10:08:27;95103.81;;;19.95;23.18
20027;BME280;10174;42.688;23.344;2023-03-14T10:10:53;95099.38;;;20.41;23.00
20027;BME280;10174;42.688;23.344;2023-03-14T10:13:25;95082.72;;;18.83;24.19
20027;BME280;10174;42.688;23.344;2023-03-14T10:15:59;95003.69;;;19.35;23.85
20027;BME280;10174;42.688;23.344;2023-03-14T10:18:25;95087.63;;;19.89;23.70
20027;BME280;10174;42.688;23.344;2023-03-14T10:21:28;95076.66;;;18.86;24.31
20027;BME280;10174;42.688;23.344;2023-03-14T10:23:54;95065.28;;;18.93;24.79
20027;BME280;10174;42.688;23.344;2023-03-14T10:26:27;95061.50;;;17.92;26.12
20027;BME280;10174;42.688;23.344;2023-03-14T10:29:12;95051.16;;;18.12;26.16
20027;BME280;10174;42.688;23.344;2023-03-14T10:31:51;95039.72;;;20.09;24.88
20027;BME280;10174;42.688;23.344;2023-03-14T10:34:21;95027.09;;;19.66;24.40
20027;BME280;10174;42.688;23.344;2023-03-14T10:36:52;95008.97;;;20.30;24.00
20027;BME280;10174;42.688;23.344;2023-03-14T10:39:33;94996.69;;;19.94;24.84
20027;BME280;10174;42.688;23.344;2023-03-14T10:42:15;94965.13;;;20.14;24.02
20027;BME280;10174;42.688;23.344;2023-03-14T10:44:42;94940.38;;;19.98;24.57
20027;BME280;10174;42.688;23.344;2023-03-14T10:47:19;94986.94;;;20.14;24.63
20027;BME280;10174;42.688;23.344;2023-03-14T10:49:47;94998.16;;;19.53;26.01
20027;BME280;10174;42.688;23.344;2023-03-14T10:52:25;94985.53;;;20.08;25.11
20027;BME280;10174;42.688;23.344;2023-03-14T10:54:59;94967.16;;;19.66;25.54
20027;BME280;10174;42.688;23.344;2023-03-14T10:57:26;94967.25;;;20.08;24.94
20027;BME280;10174;42.688;23.344;2023-03-14T10:59:53;94972.91;;;19.73;25.95
20027;BME280;10174;42.688;23.344;2023-03-14T11:05:10;94959.75;;;20.81;24.21
20027;BME280;10174;42.688;23.344;2023-03-14T11:07:42;94957.28;;;20.13;25.03
20027;BME280;10174;42.688;23.344;2023-03-14T11:10:40;94944.81;;;20.66;24.17
20027;BME280;10174;42.688;23.344;2023-03-14T11:13:30;94940.06;;;19.70;25.44
20027;BME280;10174;42.688;23.344;2023-03-14T11:16:09;94837.94;;;19.25;25.52
20027;BME280;10174;42.688;23.344;2023-03-14T11:21:13;94921.06;;;19.61;25.17
20027;BME280;10174;42.688;23.344;2023-03-14T11:32:59;94832.63;;;19.08;25.81
20027;BME280;10174;42.688;23.344;2023-03-14T11:35:30;94876.97;;;19.89;25.92
20027;BME280;10174;42.688;23.344;2023-03-14T11:38:05;94847.38;;;20.79;23.85
20027;BME280;10174;42.688;23.344;2023-03-14T11:40:36;94828.94;;;20.63;24.51
20027;BME280;10174;42.688;23.344;2023-03-14T11:43:20;94851.59;;;20.89;23.61
20027;BME280;10174;42.688;23.344;2023-03-14T11:45:54;94852.53;;;22.52;22.67
20027;BME280;10174;42.688;23.344;2023-03-14T11:48:42;94847.72;;;21.39;23.19
20027;BME280;10174;42.688;23.344;2023-03-14T11:51:27;94847.50;;;21.57;23.05
20027;BME280;10174;42.688;23.344;2023-03-14T11:57:15;94835.41;;;21.45;23.46
20027;BME280;10174;42.688;23.344;2023-03-14T11:59:57;94829.44;;;22.97;22.29
20027;BME280;10174;42.688;23.344;2023-03-14T12:02:39;94793.59;;;22.86;21.90
20027;BME280;10174;42.688;23.344;2023-03-14T12:10:43;94803.59;;;21.25;23.00
20027;BME280;10174;42.688;23.344;2023-03-14T12:13:12;94773.59;;;21.94;22.20
20027;BME280;10174;42.688;23.344;2023-03-14T12:15:40;94750.16;;;22.24;22.01
20027;BME280;10174;42.688;23.344;2023-03-14T12:18:35;94785.72;;;21.80;22.64
20027;BME280;10174;42.688;23.344;2023-03-14T12:21:08;94769.91;;;23.10;21.38
20027;BME280;10174;42.688;23.344;2023-03-14T12:23:42;94734.50;;;23.37;20.87
20027;BME280;10174;42.688;23.344;2023-03-14T12:28:38;94763.28;;;21.34;22.01
20027;BME280;10174;42.688;23.344;2023-03-14T12:39:22;94643.06;;;21.91;21.06
20027;BME280;10174;42.688;23.344;2023-03-14T12:42:03;94741.75;;;22.01;22.01
20027;BME280;10174;42.688;23.344;2023-03-14T12:46:57;94737.78;;;22.59;21.69
20027;BME280;10174;42.688;23.344;2023-03-14T12:49:30;94735.50;;;21.73;22.75
20027;BME280;10174;42.688;23.344;2023-03-14T12:52:00;94690.56;;;19.48;24.46
20027;BME280;10174;42.688;23.344;2023-03-14T12:54:37;94719.59;;;19.44;24.85
20027;BME280;10174;42.688;23.344;2023-03-14T12:57:50;94708.81;;;19.14;25.67
20027;BME280;10174;42.688;23.344;2023-03-14T12:59:58;94710.13;;;19.62;24.71
20027;BME280;10174;42.688;23.344;2023-03-14T13:02:27;94701.66;;;19.64;24.43
20027;BME280;10174;42.688;23.344;2023-03-14T13:05:01;94697.44;;;19.66;24.92
20027;BME280;10174;42.688;23.344;2023-03-14T13:07:39;94700.50;;;19.31;25.58
20027;BME280;10174;42.688;23.344;2023-03-14T13:10:24;94688.28;;;18.95;24.86
20027;BME280;10174;42.688;23.344;2023-03-14T13:15:21;94684.97;;;18.90;25.67
20027;BME280;10174;42.688;23.344;2023-03-14T13:17:49;94674.22;;;18.33;25.88
20027;BME280;10174;42.688;23.344;2023-03-14T13:20:26;94666.41;;;18.32;26.16
20027;BME280;10174;42.688;23.344;2023-03-14T13:22:53;94664.66;;;18.27;25.20
20027;BME280;10174;42.688;23.344;2023-03-14T13:25:19;94663.31;;;17.56;25.83
20027;BME280;10174;42.688;23.344;2023-03-14T13:27:46;94615.47;;;17.25;26.50
20027;BME280;10174;42.688;23.344;2023-03-14T13:30:25;94632.59;;;17.65;26.76
20027;BME280;10174;42.688;23.344;2023-03-14T13:32:52;94635.13;;;17.70;26.05
20027;BME280;10174;42.688;23.344;2023-03-14T13:35:22;94629.88;;;17.73;26.04
20027;BME280;10174;42.688;23.344;2023-03-14T13:37:53;94624.63;;;17.59;26.28
20027;BME280;10174;42.688;23.344;2023-03-14T13:40:25;94508.13;;;16.63;26.85
20027;BME280;10174;42.688;23.344;2023-03-14T13:43:06;94622.78;;;17.34;26.87
20027;BME280;10174;42.688;23.344;2023-03-14T13:46:06;94594.03;;;17.33;26.72
20027;BME280;10174;42.688;23.344;2023-03-14T13:48:31;94611.63;;;17.91;26.16
20027;BME280;10174;42.688;23.344;2023-03-14T13:51:06;94603.28;;;17.96;26.76